createdAt,value
2019-03-04T00:00:30.224Z,2.03
2019-03-04T00:02:33.148Z,1.40
2019-03-04T00:04:36.842Z,1.50
2019-03-04T00:06:40.583Z,2.30
2019-03-04T00:08:43.519Z,1.60
2019-03-04T00:10:46.611Z,2.00
2019-03-04T00:12:50.541Z,2.17
2019-03-04T00:14:53.487Z,2.27
2019-03-04T00:16:57.173Z,1.93
2019-03-04T00:19:00.131Z,1.90
2019-03-04T00:21:03.064Z,1.30
2019-03-04T00:23:06.743Z,1.90
2019-03-04T00:25:09.697Z,1.23
2019-03-04T00:27:12.611Z,1.00
2019-03-04T00:29:15.528Z,1.30
2019-03-04T00:31:18.592Z,1.47
2019-03-04T00:33:22.284Z,1.90
2019-03-04T00:35:25.997Z,1.80
2019-03-04T00:37:29.720Z,1.40
2019-03-04T00:39:32.638Z,2.27
2019-03-04T00:41:35.657Z,1.60
2019-03-04T00:43:39.372Z,1.73
2019-03-04T00:45:42.287Z,1.50
2019-03-04T00:47:45.204Z,2.10
2019-03-04T00:49:48.150Z,1.30
2019-03-04T00:51:51.063Z,1.30
2019-03-04T00:53:53.993Z,1.90
2019-03-04T00:55:57.777Z,1.50
2019-03-04T00:58:01.488Z,1.57
2019-03-04T01:00:05.228Z,1.73
2019-03-04T01:02:08.200Z,1.70
2019-03-04T01:04:11.139Z,1.70
2019-03-04T01:06:14.888Z,1.53
2019-03-04T01:08:17.900Z,1.67
2019-03-04T01:10:21.592Z,1.60
2019-03-04T01:12:26.035Z,1.47
2019-03-04T01:14:29.768Z,1.30
2019-03-04T01:16:32.691Z,1.63
2019-03-04T01:18:35.641Z,1.70
2019-03-04T01:20:38.600Z,1.37
2019-03-04T01:22:41.550Z,1.23
2019-03-04T01:24:45.341Z,1.40
2019-03-04T01:26:49.087Z,1.70
2019-03-04T01:28:52.071Z,1.57
2019-03-04T01:30:54.987Z,1.83
2019-03-04T01:32:58.039Z,1.57
2019-03-04T01:35:01.813Z,1.52
2019-03-04T01:37:05.518Z,1.87
2019-03-04T01:39:09.544Z,1.57
2019-03-04T01:41:12.470Z,1.73
2019-03-04T01:43:15.492Z,1.77
2019-03-04T01:45:19.213Z,2.03
2019-03-04T01:47:22.140Z,1.90
2019-03-04T01:49:25.053Z,1.30
2019-03-04T01:51:28.858Z,1.33
2019-03-04T01:53:32.540Z,1.70
2019-03-04T01:55:36.227Z,1.40
2019-03-04T01:57:39.179Z,1.30
2019-03-04T01:59:42.121Z,1.43
2019-03-04T02:01:45.820Z,1.57
2019-03-04T02:03:49.659Z,1.23
2019-03-04T02:05:52.583Z,1.47
2019-03-04T02:07:57.003Z,1.90
2019-03-04T02:09:59.977Z,1.60
2019-03-04T02:12:02.959Z,1.60
2019-03-04T02:14:05.883Z,1.80
2019-03-04T02:16:08.836Z,1.40
2019-03-04T02:18:11.776Z,1.47
2019-03-04T02:20:14.717Z,1.67
2019-03-04T02:22:18.559Z,1.33
2019-03-04T02:24:23.048Z,2.00
2019-03-04T02:26:26.842Z,1.40
2019-03-04T02:28:30.045Z,1.90
2019-03-04T02:30:32.965Z,1.70
2019-03-04T02:32:35.997Z,1.60
2019-03-04T02:34:39.711Z,1.67
2019-03-04T02:36:42.632Z,1.77
2019-03-04T02:38:45.584Z,1.67
2019-03-04T02:40:48.665Z,1.90
2019-03-04T02:42:51.606Z,1.73
2019-03-04T02:44:54.530Z,1.90
2019-03-04T02:46:57.594Z,1.07
2019-03-04T02:49:01.293Z,1.43
2019-03-04T02:51:04.980Z,1.70
2019-03-04T02:53:08.898Z,1.90
2019-03-04T02:55:12.625Z,1.70
2019-03-04T02:57:15.554Z,1.53
2019-03-04T02:59:18.521Z,1.87
2019-03-04T03:01:22.469Z,1.90
2019-03-04T03:03:26.270Z,1.40
2019-03-04T03:05:29.995Z,1.70
2019-03-04T03:07:32.929Z,1.47
2019-03-04T03:09:35.857Z,2.13
2019-03-04T03:11:38.921Z,1.90
2019-03-04T03:13:42.723Z,1.70
2019-03-04T03:15:46.525Z,2.00
2019-03-04T03:17:50.355Z,1.50
2019-03-04T03:19:53.278Z,1.83
2019-03-04T03:21:56.196Z,1.40
2019-03-04T03:24:00.116Z,1.73
2019-03-04T03:26:03.068Z,2.27
2019-03-04T03:28:06.779Z,1.43
2019-03-04T03:30:11.550Z,1.57
2019-03-04T03:32:14.505Z,1.57
2019-03-04T03:34:17.432Z,1.50
2019-03-04T03:36:20.396Z,1.50
2019-03-04T03:38:23.322Z,1.50
2019-03-04T03:40:27.012Z,1.20
2019-03-04T03:42:30.117Z,1.67
2019-03-04T03:44:33.821Z,1.17
2019-03-04T03:46:37.620Z,1.17
2019-03-04T03:48:41.526Z,1.40
2019-03-04T03:50:44.459Z,1.40
2019-03-04T03:52:47.380Z,1.43
2019-03-04T03:54:51.193Z,1.53
2019-03-04T03:56:54.901Z,1.10
2019-03-04T03:58:57.840Z,1.13
2019-03-04T04:01:00.814Z,1.50
2019-03-04T04:03:03.748Z,1.40
2019-03-04T04:05:06.677Z,1.50
2019-03-04T04:07:09.660Z,1.33
2019-03-04T04:09:12.582Z,1.30
2019-03-04T04:11:16.356Z,1.43
2019-03-04T04:13:19.488Z,1.23
2019-03-04T04:15:22.415Z,1.10
2019-03-04T04:17:25.438Z,1.33
2019-03-04T04:19:29.326Z,1.63
2019-03-04T04:21:33.023Z,1.43
2019-03-04T04:23:37.006Z,1.27
2019-03-04T04:25:40.064Z,1.57
2019-03-04T04:27:43.029Z,1.23
2019-03-04T04:29:45.971Z,1.43
2019-03-04T04:31:48.921Z,1.13
2019-03-04T04:33:51.876Z,1.63
2019-03-04T04:35:54.815Z,1.73
2019-03-04T04:37:57.800Z,1.80
2019-03-04T04:40:00.731Z,1.37
2019-03-04T04:42:03.658Z,1.57
2019-03-04T04:44:06.800Z,1.40
2019-03-04T04:46:09.728Z,1.30
2019-03-04T04:48:13.564Z,1.10
2019-03-04T04:50:26.508Z,1.33
2019-03-04T04:52:29.427Z,1.50
2019-03-04T04:54:32.350Z,1.30
2019-03-04T04:56:35.308Z,1.50
2019-03-04T04:58:39.003Z,1.47
2019-03-04T05:00:42.111Z,1.60
2019-03-04T05:02:45.839Z,1.30
2019-03-04T05:04:48.772Z,1.50
2019-03-04T05:06:51.716Z,1.43
2019-03-04T05:08:54.760Z,1.50
2019-03-04T05:10:58.471Z,1.90
2019-03-04T05:13:01.418Z,1.67
2019-03-04T05:15:04.511Z,1.90
2019-03-04T05:17:08.213Z,1.50
2019-03-04T05:19:11.911Z,2.00
2019-03-04T05:21:14.913Z,1.60
2019-03-04T05:23:18.604Z,1.33
2019-03-04T05:25:22.413Z,1.63
2019-03-04T05:27:26.217Z,1.70
2019-03-04T05:29:29.909Z,1.57
2019-03-04T05:31:33.720Z,1.77
2019-03-04T05:33:37.541Z,1.30
2019-03-04T05:35:40.480Z,1.63
2019-03-04T05:37:43.793Z,1.70
2019-03-04T05:39:47.518Z,2.23
2019-03-04T05:41:50.438Z,1.47
2019-03-04T05:43:53.459Z,1.60
2019-03-04T05:45:57.383Z,1.90
2019-03-04T05:48:00.349Z,1.20
2019-03-04T05:50:04.044Z,1.80
2019-03-04T05:52:07.838Z,1.50
2019-03-04T05:54:11.524Z,1.50
2019-03-04T05:56:14.534Z,1.40
2019-03-04T05:58:18.539Z,1.50
2019-03-04T06:00:22.226Z,1.50
2019-03-04T06:02:25.925Z,1.47
2019-03-04T06:04:29.740Z,1.90
2019-03-04T06:06:39.199Z,1.70
2019-03-04T06:08:42.116Z,1.30
2019-03-04T06:10:45.072Z,1.50
2019-03-04T06:12:48.002Z,1.50
2019-03-04T06:14:51.000Z,1.67
2019-03-04T06:16:54.822Z,1.50
2019-03-04T06:18:57.749Z,1.50
2019-03-04T06:21:00.774Z,1.20
2019-03-04T06:23:04.501Z,1.63
2019-03-04T06:25:08.345Z,1.50
2019-03-04T06:27:11.282Z,1.83
2019-03-04T06:29:14.242Z,1.30
2019-03-04T06:31:17.928Z,1.80
2019-03-04T06:33:21.625Z,1.17
2019-03-04T06:35:24.600Z,1.93
2019-03-04T06:37:27.613Z,1.43
2019-03-04T06:39:31.410Z,1.47
2019-03-04T06:41:35.214Z,1.80
2019-03-04T06:43:39.014Z,2.27
2019-03-04T06:45:42.817Z,1.90
2019-03-04T06:47:46.526Z,2.23
2019-03-04T06:49:49.447Z,1.90
2019-03-04T06:51:52.436Z,1.13
2019-03-04T06:54:15.927Z,2.60
2019-03-04T06:56:22.480Z,1.60
2019-03-04T06:58:25.496Z,1.73
2019-03-04T07:00:30.347Z,2.00
2019-03-04T07:02:39.025Z,1.50
2019-03-04T07:05:13.459Z,1.30
2019-03-04T07:07:17.184Z,1.20
2019-03-04T07:09:20.103Z,1.10
2019-03-04T07:11:23.107Z,0.90
2019-03-04T07:13:26.955Z,1.00
2019-03-04T07:15:29.867Z,0.83
2019-03-04T07:17:32.947Z,0.83
2019-03-04T07:19:35.892Z,1.07
2019-03-04T07:21:38.841Z,0.90
2019-03-04T07:23:42.090Z,1.10
2019-03-04T07:25:45.486Z,1.20
2019-03-04T07:27:48.527Z,1.40
2019-03-04T07:29:52.226Z,1.13
2019-03-04T07:31:56.060Z,1.63
2019-03-04T07:33:59.005Z,1.30
2019-03-04T07:36:02.784Z,1.10
2019-03-04T07:38:08.299Z,1.00
2019-03-04T07:40:11.923Z,1.50
2019-03-04T07:42:14.942Z,0.87
2019-03-04T07:44:18.676Z,1.10
2019-03-04T07:46:21.620Z,1.10
2019-03-04T07:48:24.708Z,1.17
2019-03-04T07:50:28.431Z,1.13
2019-03-04T07:52:31.353Z,1.00
2019-03-04T07:54:34.371Z,1.00
2019-03-04T07:56:38.495Z,1.20
2019-03-04T07:58:41.436Z,1.27
2019-03-04T08:00:44.450Z,1.30
2019-03-04T08:02:48.189Z,1.10
2019-03-04T08:04:51.107Z,1.00
2019-03-04T08:06:54.028Z,1.03
2019-03-04T08:09:16.979Z,1.10
2019-03-04T08:11:43.601Z,0.70
2019-03-04T08:14:04.686Z,0.67
2019-03-04T08:16:07.816Z,0.93
2019-03-04T08:18:10.731Z,1.00
2019-03-04T08:20:13.748Z,1.00
2019-03-04T08:22:17.564Z,0.77
2019-03-04T08:24:21.264Z,0.80
2019-03-04T08:26:24.963Z,1.20
2019-03-04T08:28:28.717Z,0.93
2019-03-04T08:30:31.750Z,0.90
2019-03-04T08:32:35.550Z,0.70
2019-03-04T08:34:39.266Z,0.87
2019-03-04T08:36:42.359Z,0.83
2019-03-04T08:38:45.299Z,0.83
2019-03-04T08:40:48.253Z,0.80
2019-03-04T08:42:51.181Z,0.67
2019-03-04T08:44:54.859Z,1.17
2019-03-04T08:46:58.684Z,0.70
2019-03-04T08:49:02.383Z,0.67
2019-03-04T08:51:06.071Z,1.07
2019-03-04T08:53:09.890Z,0.70
2019-03-04T08:55:14.471Z,0.90
2019-03-04T08:57:17.404Z,1.03
2019-03-04T08:59:20.356Z,0.80
2019-03-04T09:01:24.160Z,0.93
2019-03-04T09:03:27.861Z,0.60
2019-03-04T09:05:32.415Z,0.60
2019-03-04T09:07:35.350Z,0.60
2019-03-04T09:09:38.275Z,1.13
2019-03-04T09:11:41.679Z,0.60
2019-03-04T09:13:44.607Z,0.80
2019-03-04T09:15:47.539Z,0.80
2019-03-04T09:17:50.579Z,0.80
2019-03-04T09:19:53.492Z,1.00
2019-03-04T09:21:56.413Z,0.80
2019-03-04T09:23:59.380Z,1.00
2019-03-04T09:26:03.078Z,0.60
2019-03-04T09:28:06.008Z,0.70
2019-03-04T09:30:11.800Z,0.73
2019-03-04T09:32:14.728Z,0.70
2019-03-04T09:34:17.656Z,0.70
2019-03-04T09:36:20.616Z,0.67
2019-03-04T09:38:24.422Z,0.77
2019-03-04T09:40:30.832Z,0.60
2019-03-04T09:42:33.792Z,0.60
2019-03-04T09:44:36.786Z,0.60
2019-03-04T09:46:39.701Z,0.80
2019-03-04T09:48:42.660Z,0.80
2019-03-04T09:50:45.628Z,0.87
2019-03-04T09:52:48.551Z,0.70
2019-03-04T09:54:51.520Z,0.93
2019-03-04T09:56:54.484Z,0.70
2019-03-04T09:58:57.530Z,0.63
2019-03-04T10:01:03.908Z,0.73
2019-03-04T10:03:40.381Z,1.00
2019-03-04T10:06:14.731Z,0.50
2019-03-04T10:08:18.429Z,0.50
2019-03-04T10:10:29.313Z,1.37
2019-03-04T10:12:48.972Z,0.90
2019-03-04T10:15:10.475Z,0.80
2019-03-04T10:17:38.088Z,0.70
2019-03-04T10:19:55.384Z,0.83
2019-03-04T10:22:13.989Z,0.57
2019-03-04T10:24:23.362Z,0.60
2019-03-04T10:26:53.115Z,0.53
2019-03-04T10:29:05.688Z,0.60
2019-03-04T10:31:25.367Z,0.60
2019-03-04T10:33:49.695Z,0.77
2019-03-04T10:35:58.205Z,0.60
2019-03-04T10:38:04.717Z,0.50
2019-03-04T10:40:22.638Z,0.60
2019-03-04T10:42:49.348Z,0.80
2019-03-04T10:44:57.851Z,0.77
2019-03-04T10:47:01.605Z,0.90
2019-03-04T10:49:04.513Z,1.00
2019-03-04T10:51:07.423Z,1.00
2019-03-04T10:53:10.519Z,1.00
2019-03-04T10:55:13.435Z,1.30
2019-03-04T10:57:16.763Z,0.77
2019-03-04T10:59:20.596Z,0.77
2019-03-04T11:01:30.473Z,1.00
2019-03-04T11:03:26.665Z,1.33
2019-03-04T11:05:29.719Z,1.03
2019-03-04T11:07:33.419Z,0.80
2019-03-04T11:09:37.110Z,1.17
2019-03-04T11:11:41.061Z,1.10
2019-03-04T11:13:44.003Z,1.20
2019-03-04T11:15:47.808Z,1.20
2019-03-04T11:17:50.899Z,1.47
2019-03-04T11:19:53.835Z,1.00
2019-03-04T11:21:56.772Z,0.77
2019-03-04T11:23:59.873Z,0.70
2019-03-04T11:26:03.031Z,0.87
2019-03-04T11:28:06.733Z,0.70
2019-03-04T11:30:12.176Z,0.70
2019-03-04T11:32:15.854Z,0.87
2019-03-04T11:34:18.775Z,0.83
2019-03-04T11:36:22.144Z,0.93
2019-03-04T11:38:31.631Z,0.90
2019-03-04T11:40:35.506Z,1.17
2019-03-04T11:42:38.596Z,1.10
2019-03-04T11:44:41.511Z,0.97
2019-03-04T11:46:45.048Z,0.90
2019-03-04T11:48:48.877Z,1.70
2019-03-04T11:50:51.813Z,0.97
2019-03-04T11:52:54.749Z,0.90
2019-03-04T11:54:57.713Z,1.10
2019-03-04T11:57:00.636Z,0.90
2019-03-04T11:59:04.365Z,1.00
2019-03-04T12:01:10.091Z,1.13
2019-03-04T12:03:13.016Z,0.80
2019-03-04T12:05:16.810Z,0.63
2019-03-04T12:07:20.540Z,0.77
2019-03-04T12:09:23.463Z,0.90
2019-03-04T12:11:26.386Z,0.90
2019-03-04T12:13:29.593Z,1.13
2019-03-04T12:15:32.524Z,1.10
2019-03-04T12:17:35.440Z,0.67
2019-03-04T12:19:39.340Z,1.30
2019-03-04T12:21:42.281Z,0.80
2019-03-04T12:23:45.296Z,1.20
2019-03-04T12:25:49.027Z,0.80
2019-03-04T12:27:51.959Z,1.50
2019-03-04T12:29:56.396Z,1.03
2019-03-04T12:32:00.652Z,1.00
2019-03-04T12:34:03.571Z,1.27
2019-03-04T12:36:06.529Z,1.27
2019-03-04T12:38:09.489Z,0.87
2019-03-04T12:40:12.424Z,1.13
2019-03-04T12:42:16.240Z,1.03
2019-03-04T12:44:19.964Z,1.07
2019-03-04T12:46:22.905Z,1.13
2019-03-04T12:48:26.603Z,1.03
2019-03-04T12:50:29.728Z,1.20
2019-03-04T12:52:32.660Z,0.80
2019-03-04T12:54:35.674Z,1.43
2019-03-04T12:56:39.395Z,1.30
2019-03-04T12:58:42.386Z,1.30
2019-03-04T13:00:46.143Z,1.15
2019-03-04T13:02:57.121Z,0.80
2019-03-04T13:04:52.839Z,0.83
2019-03-04T13:06:56.535Z,1.10
2019-03-04T13:09:00.370Z,1.23
2019-03-04T13:11:03.306Z,1.00
2019-03-04T13:13:06.233Z,0.97
2019-03-04T13:15:13.649Z,1.03
2019-03-04T13:17:16.679Z,0.90
2019-03-04T13:19:20.367Z,0.90
2019-03-04T13:21:24.339Z,1.93
2019-03-04T13:23:27.372Z,1.67
2019-03-04T13:25:31.175Z,1.00
2019-03-04T13:27:34.999Z,1.57
2019-03-04T13:29:37.924Z,1.27
2019-03-04T13:31:41.648Z,1.13
2019-03-04T13:33:45.468Z,1.07
2019-03-04T13:35:49.263Z,1.60
2019-03-04T13:37:52.419Z,1.00
2019-03-04T13:39:55.771Z,1.33
2019-03-04T13:41:58.826Z,1.10
2019-03-04T13:44:02.628Z,1.10
2019-03-04T13:46:06.447Z,1.10
2019-03-04T13:48:09.515Z,0.90
2019-03-04T13:50:13.197Z,0.97
2019-03-04T13:52:16.946Z,0.87
2019-03-04T13:54:19.864Z,0.97
2019-03-04T13:56:22.884Z,1.10
2019-03-04T13:58:26.600Z,1.10
2019-03-04T14:00:34.188Z,1.10
2019-03-04T14:02:37.156Z,0.93
2019-03-04T14:04:40.883Z,0.97
2019-03-04T14:06:43.807Z,1.23
2019-03-04T14:08:46.724Z,0.90
2019-03-04T14:10:50.544Z,1.30
2019-03-04T14:12:53.495Z,0.90
2019-03-04T14:14:57.309Z,1.10
2019-03-04T14:17:01.034Z,1.20
2019-03-04T14:19:03.959Z,0.90
2019-03-04T14:21:06.893Z,1.00
2019-03-04T14:23:10.638Z,1.33
2019-03-04T14:25:13.966Z,1.60
2019-03-04T14:27:18.395Z,1.17
2019-03-04T14:29:21.363Z,1.20
2019-03-04T14:31:25.165Z,1.40
2019-03-04T14:33:28.168Z,1.20
2019-03-04T14:35:31.336Z,1.17
2019-03-04T14:37:35.036Z,1.30
2019-03-04T14:39:38.838Z,0.83
2019-03-04T14:41:42.743Z,1.37
2019-03-04T14:43:46.428Z,0.80
2019-03-04T14:45:49.359Z,1.03
2019-03-04T14:47:52.413Z,0.80
2019-03-04T14:50:03.313Z,1.23
2019-03-04T14:51:59.912Z,1.37
2019-03-04T14:54:03.616Z,1.90
2019-03-04T14:56:06.552Z,1.30
2019-03-04T14:58:09.548Z,1.27
2019-03-04T15:00:16.357Z,1.07
2019-03-04T15:02:19.300Z,1.20
2019-03-04T15:04:22.315Z,1.20
2019-03-04T15:06:26.038Z,1.07
2019-03-04T15:08:28.962Z,1.30
2019-03-04T15:10:32.595Z,0.90
2019-03-04T15:12:36.416Z,1.03
2019-03-04T15:14:39.381Z,0.90
2019-03-04T15:16:43.900Z,0.77
2019-03-04T15:18:47.993Z,0.70
2019-03-04T15:20:52.531Z,0.90
2019-03-04T15:22:56.332Z,0.63
2019-03-04T15:25:00.144Z,0.70
2019-03-04T15:27:03.012Z,0.77
2019-03-04T15:29:07.289Z,0.73
2019-03-04T15:31:10.470Z,0.60
2019-03-04T15:33:17.898Z,0.70
2019-03-04T15:35:17.281Z,0.77
2019-03-04T15:37:21.031Z,0.60
2019-03-04T15:39:23.947Z,0.60
2019-03-04T15:41:26.969Z,0.57
2019-03-04T15:43:30.801Z,0.60
2019-03-04T15:45:33.808Z,0.50
2019-03-04T15:47:36.782Z,0.40
2019-03-04T15:49:39.653Z,0.50
2019-03-04T15:51:42.599Z,0.77
2019-03-04T15:53:46.303Z,0.40
2019-03-04T15:55:50.019Z,0.50
2019-03-04T15:57:52.944Z,0.40
2019-03-04T15:59:55.966Z,0.40
2019-03-04T16:02:02.430Z,0.50
2019-03-04T16:04:06.149Z,0.60
2019-03-04T16:06:09.061Z,0.40
2019-03-04T16:08:12.325Z,0.60
2019-03-04T16:10:24.116Z,0.50
2019-03-04T16:12:27.105Z,0.47
2019-03-04T16:14:30.160Z,0.50
2019-03-04T16:16:33.858Z,0.50
2019-03-04T16:18:37.663Z,0.57
2019-03-04T16:20:41.420Z,0.77
2019-03-04T16:22:44.368Z,0.60
2019-03-04T16:24:49.100Z,0.60
2019-03-04T16:26:52.870Z,0.53
2019-03-04T16:28:56.551Z,0.63
2019-03-04T16:30:59.479Z,0.70
2019-03-04T16:33:02.451Z,0.80
2019-03-04T16:35:05.372Z,0.70
2019-03-04T16:37:08.400Z,0.80
2019-03-04T16:39:12.337Z,0.63
2019-03-04T16:41:15.276Z,0.60
2019-03-04T16:43:18.964Z,0.83
2019-03-04T16:45:21.924Z,0.73
2019-03-04T16:47:24.954Z,0.70
2019-03-04T16:49:28.641Z,0.70
2019-03-04T16:51:31.671Z,0.60
2019-03-04T16:53:34.589Z,0.70
2019-03-04T16:55:37.508Z,0.60
2019-03-04T16:57:41.305Z,0.57
2019-03-04T16:59:44.280Z,0.80
2019-03-04T17:01:47.968Z,0.80
2019-03-04T17:03:51.292Z,0.63
2019-03-04T17:05:54.227Z,0.70
2019-03-04T17:07:57.243Z,0.87
2019-03-04T17:10:00.972Z,0.90
2019-03-04T17:12:03.914Z,1.40
2019-03-04T17:14:07.625Z,0.90
2019-03-04T17:16:11.456Z,0.70
2019-03-04T17:18:14.390Z,0.77
2019-03-04T17:20:17.306Z,1.10
2019-03-04T17:22:20.274Z,0.97
2019-03-04T17:24:23.953Z,0.90
2019-03-04T17:26:26.897Z,0.80
2019-03-04T17:28:30.268Z,0.50
2019-03-04T17:30:33.394Z,0.90
2019-03-04T17:32:36.317Z,0.83
2019-03-04T17:34:40.032Z,0.60
2019-03-04T17:36:42.961Z,1.27
2019-03-04T17:38:45.888Z,0.90
2019-03-04T17:40:49.683Z,1.00
2019-03-04T17:42:53.382Z,0.90
2019-03-04T17:44:57.744Z,0.90
2019-03-04T17:47:00.728Z,0.60
2019-03-04T17:49:03.712Z,0.67
2019-03-04T17:51:06.683Z,1.33
2019-03-04T17:53:09.681Z,1.47
2019-03-04T17:55:12.711Z,0.80
2019-03-04T17:57:16.856Z,0.60
2019-03-04T17:59:19.854Z,0.83
2019-03-04T18:01:22.787Z,0.67
2019-03-04T18:03:26.485Z,1.07
2019-03-04T18:05:30.719Z,0.60
2019-03-04T18:07:33.640Z,0.50
2019-03-04T18:09:36.770Z,0.60
2019-03-04T18:11:40.492Z,1.03
2019-03-04T18:13:43.420Z,1.03
2019-03-04T18:15:46.437Z,0.80
2019-03-04T18:17:50.528Z,0.87
2019-03-04T18:19:53.447Z,0.80
2019-03-04T18:21:56.375Z,0.70
2019-03-04T18:24:00.179Z,0.70
2019-03-04T18:26:21.197Z,0.90
2019-03-04T19:47:51.590Z,1.97
2019-03-04T19:49:54.516Z,2.23
2019-03-04T19:51:57.858Z,2.30
2019-03-04T19:54:00.921Z,1.67
2019-03-04T19:56:04.609Z,2.10
2019-03-04T19:58:08.320Z,1.95
2019-03-04T20:00:11.283Z,2.35
2019-03-04T20:02:15.076Z,1.98
2019-03-04T20:04:18.006Z,1.70
2019-03-04T20:06:21.571Z,1.95
2019-03-04T20:08:25.269Z,1.65
2019-03-04T20:10:28.965Z,1.85
2019-03-04T20:12:32.820Z,1.50
2019-03-04T20:14:35.745Z,1.67
2019-03-04T20:16:38.664Z,1.50
2019-03-04T20:18:41.629Z,1.75
2019-03-04T20:20:45.323Z,2.05
2019-03-04T20:22:49.016Z,1.70
2019-03-04T20:24:53.635Z,1.20
2019-03-04T20:26:57.353Z,1.70
2019-03-04T20:29:01.032Z,1.53
2019-03-04T20:31:03.975Z,1.33
2019-03-04T20:33:06.916Z,1.77
2019-03-04T20:35:10.667Z,1.60
2019-03-04T20:37:13.631Z,1.75
2019-03-04T20:39:16.625Z,1.40
2019-03-04T20:41:19.564Z,2.40
2019-03-04T20:43:23.496Z,2.03
2019-03-04T20:45:26.419Z,1.80
2019-03-04T20:47:29.372Z,1.30
2019-03-04T20:49:32.333Z,1.33
2019-03-04T20:51:35.255Z,1.08
2019-03-04T20:53:38.180Z,1.05
2019-03-04T20:55:41.898Z,1.47
2019-03-04T20:57:44.837Z,1.57
2019-03-04T20:59:49.282Z,1.50
2019-03-04T21:01:52.996Z,1.20
2019-03-04T21:03:55.924Z,1.10
2019-03-04T21:05:58.948Z,1.30
2019-03-04T21:08:02.771Z,1.23
2019-03-04T21:10:06.584Z,1.20
2019-03-04T21:12:09.489Z,1.20
2019-03-04T21:14:12.474Z,1.37
2019-03-04T21:16:15.398Z,1.40
2019-03-04T21:18:18.486Z,1.67
2019-03-04T21:20:22.207Z,1.27
2019-03-04T21:22:25.139Z,1.10
2019-03-04T21:24:28.161Z,1.27
2019-03-04T21:26:31.338Z,1.90
2019-03-04T21:28:36.902Z,1.07
2019-03-04T21:31:01.723Z,1.40
2019-03-04T21:33:05.091Z,1.23
2019-03-04T21:35:40.716Z,1.33
2019-03-04T21:37:44.517Z,1.40
2019-03-04T21:39:50.674Z,1.07
2019-03-04T21:42:12.092Z,1.87
2019-03-04T21:44:27.068Z,1.42
2019-03-04T21:46:32.521Z,1.23
2019-03-04T21:48:37.220Z,1.77
2019-03-04T21:50:56.903Z,1.30
2019-03-04T21:53:02.275Z,1.65
2019-03-04T21:55:07.796Z,1.30
2019-03-04T21:57:27.510Z,1.30
2019-03-04T21:59:30.576Z,1.60
2019-03-04T22:01:34.387Z,1.60
2019-03-04T22:03:37.320Z,1.73
2019-03-04T22:05:49.730Z,2.37
2019-03-04T22:07:44.167Z,1.57
2019-03-04T22:09:47.204Z,1.30
2019-03-04T22:11:51.031Z,1.40
2019-03-04T22:13:53.958Z,1.53
2019-03-04T22:15:56.895Z,1.17
2019-03-04T22:17:59.876Z,1.50
2019-03-04T22:20:02.820Z,1.50
2019-03-04T22:22:06.511Z,1.70
2019-03-04T22:24:10.238Z,1.63
2019-03-04T22:26:13.169Z,1.30
2019-03-04T22:28:16.102Z,1.33
2019-03-04T22:30:19.082Z,1.40
2019-03-04T22:32:22.004Z,1.13
2019-03-04T22:34:24.949Z,1.30
2019-03-04T22:36:27.913Z,0.80
2019-03-04T22:38:30.816Z,0.93
2019-03-04T22:40:33.745Z,1.10
2019-03-04T22:42:37.522Z,1.10
2019-03-04T22:44:40.469Z,1.10
2019-03-04T22:46:43.548Z,0.90
2019-03-04T22:48:47.267Z,1.00
2019-03-04T22:50:50.213Z,1.20
2019-03-04T22:52:53.914Z,0.70
2019-03-04T22:54:57.667Z,1.10
2019-03-04T22:57:00.606Z,1.30
2019-03-04T22:59:03.639Z,1.30
2019-03-04T23:01:21.684Z,1.42
2019-03-04T23:03:25.467Z,1.50
2019-03-04T23:05:28.389Z,1.47
2019-03-04T23:07:31.360Z,1.30
2019-03-04T23:09:34.776Z,1.73
2019-03-04T23:11:38.479Z,1.60
2019-03-04T23:13:44.960Z,2.20
2019-03-04T23:15:47.902Z,1.93
2019-03-04T23:17:50.926Z,1.67
2019-03-04T23:19:54.644Z,2.50
2019-03-04T23:21:57.562Z,1.40
2019-03-04T23:24:00.564Z,1.23
2019-03-04T23:26:03.544Z,1.20
2019-03-04T23:28:06.450Z,1.30
2019-03-04T23:30:11.923Z,1.20
2019-03-04T23:32:14.995Z,1.10
2019-03-04T23:34:17.928Z,1.50
2019-03-04T23:36:20.859Z,1.55
2019-03-04T23:38:23.831Z,1.30
2019-03-04T23:40:26.763Z,1.50
2019-03-04T23:42:29.735Z,1.08
2019-03-04T23:44:32.712Z,1.50
2019-03-04T23:46:35.636Z,1.43
2019-03-04T23:48:39.358Z,1.23
2019-03-04T23:50:43.489Z,1.53
2019-03-04T23:52:46.423Z,1.00
2019-03-04T23:54:49.433Z,1.00
2019-03-04T23:56:53.264Z,1.62
2019-03-04T23:58:56.200Z,1.00
